sensor_id;sensor_type;location;lat;lon;timestamp;P1;durP1;ratioP1;P2;durP2;ratioP2
44456;SDS011;30159;49.316;8.558;2023-02-15T00:01:27;34.97;;;14.10;;
44456;SDS011;30159;49.316;8.558;2023-02-15T00:03:55;36.37;;;16.60;;
44456;SDS011;30159;49.316;8.558;2023-02-15T00:06:22;34.87;;;14.47;;
44456;SDS011;30159;49.316;8.558;2023-02-15T00:08:49;38.70;;;15.63;;
44456;SDS011;30159;49.316;8.558;2023-02-15T00:11:16;42.50;;;17.80;;
44456;SDS011;30159;49.316;8.558;2023-02-15T00:14:04;40.30;;;13.40;;
44456;SDS011;30159;49.316;8.558;2023-02-15T00:16:32;42.57;;;15.60;;
44456;SDS011;30159;49.316;8.558;2023-02-15T00:19:00;37.40;;;15.03;;
44456;SDS011;30159;49.316;8.558;2023-02-15T00:21:27;42.03;;;15.93;;
44456;SDS011;30159;49.316;8.558;2023-02-15T00:23:54;47.57;;;18.30;;
44456;SDS011;30159;49.316;8.558;2023-02-15T00:26:20;45.13;;;15.80;;
44456;SDS011;30159;49.316;8.558;2023-02-15T00:28:47;45.40;;;15.40;;
44456;SDS011;30159;49.316;8.558;2023-02-15T00:31:13;42.90;;;14.73;;
44456;SDS011;30159;49.316;8.558;2023-02-15T00:33:40;50.23;;;17.40;;
44456;SDS011;30159;49.316;8.558;2023-02-15T00:36:09;65.10;;;21.17;;
44456;SDS011;30159;49.316;8.558;2023-02-15T00:38:36;54.37;;;20.90;;
44456;SDS011;30159;49.316;8.558;2023-02-15T00:41:03;47.00;;;20.57;;
44456;SDS011;30159;49.316;8.558;2023-02-15T00:43:32;52.13;;;19.40;;
44456;SDS011;30159;49.316;8.558;2023-02-15T00:45:59;48.63;;;19.03;;
44456;SDS011;30159;49.316;8.558;2023-02-15T00:48:26;56.33;;;21.40;;
44456;SDS011;30159;49.316;8.558;2023-02-15T00:50:53;49.90;;;16.93;;
44456;SDS011;30159;49.316;8.558;2023-02-15T00:53:22;44.60;;;16.33;;
44456;SDS011;30159;49.316;8.558;2023-02-15T00:55:49;35.33;;;14.10;;
44456;SDS011;30159;49.316;8.558;2023-02-15T00:58:16;40.50;;;18.00;;
44456;SDS011;30159;49.316;8.558;2023-02-15T01:00:43;45.27;;;16.50;;
44456;SDS011;30159;49.316;8.558;2023-02-15T01:03:11;36.80;;;17.30;;
44456;SDS011;30159;49.316;8.558;2023-02-15T01:05:38;43.33;;;16.60;;
44456;SDS011;30159;49.316;8.558;2023-02-15T01:08:05;43.93;;;18.23;;
44456;SDS011;30159;49.316;8.558;2023-02-15T01:10:33;45.97;;;16.33;;
44456;SDS011;30159;49.316;8.558;2023-02-15T01:13:01;47.83;;;17.67;;
44456;SDS011;30159;49.316;8.558;2023-02-15T01:15:28;40.90;;;15.73;;
44456;SDS011;30159;49.316;8.558;2023-02-15T01:17:55;42.10;;;16.67;;
44456;SDS011;30159;49.316;8.558;2023-02-15T01:20:23;60.87;;;16.33;;
44456;SDS011;30159;49.316;8.558;2023-02-15T01:22:51;47.60;;;16.10;;
44456;SDS011;30159;49.316;8.558;2023-02-15T01:25:19;41.17;;;15.37;;
44456;SDS011;30159;49.316;8.558;2023-02-15T01:27:48;49.90;;;15.40;;
44456;SDS011;30159;49.316;8.558;2023-02-15T01:30:15;43.80;;;17.43;;
44456;SDS011;30159;49.316;8.558;2023-02-15T01:32:42;46.10;;;16.87;;
44456;SDS011;30159;49.316;8.558;2023-02-15T01:35:08;43.97;;;16.53;;
44456;SDS011;30159;49.316;8.558;2023-02-15T01:37:35;38.33;;;15.00;;
44456;SDS011;30159;49.316;8.558;2023-02-15T01:40:02;44.20;;;15.93;;
44456;SDS011;30159;49.316;8.558;2023-02-15T01:42:31;40.77;;;16.90;;
44456;SDS011;30159;49.316;8.558;2023-02-15T01:45:00;49.17;;;18.10;;
44456;SDS011;30159;49.316;8.558;2023-02-15T01:47:29;43.60;;;15.60;;
44456;SDS011;30159;49.316;8.558;2023-02-15T01:50:02;47.50;;;15.80;;
44456;SDS011;30159;49.316;8.558;2023-02-15T01:52:35;35.73;;;14.60;;
44456;SDS011;30159;49.316;8.558;2023-02-15T01:55:03;34.73;;;14.77;;
44456;SDS011;30159;49.316;8.558;2023-02-15T01:57:31;41.97;;;15.43;;
44456;SDS011;30159;49.316;8.558;2023-02-15T02:00:00;41.73;;;16.20;;
44456;SDS011;30159;49.316;8.558;2023-02-15T02:02:29;38.90;;;16.70;;
44456;SDS011;30159;49.316;8.558;2023-02-15T02:04:56;43.27;;;16.90;;
44456;SDS011;30159;49.316;8.558;2023-02-15T02:07:29;43.17;;;16.57;;
44456;SDS011;30159;49.316;8.558;2023-02-15T02:09:59;38.97;;;16.00;;
44456;SDS011;30159;49.316;8.558;2023-02-15T02:12:27;37.70;;;16.40;;
44456;SDS011;30159;49.316;8.558;2023-02-15T02:14:53;47.13;;;18.40;;
44456;SDS011;30159;49.316;8.558;2023-02-15T02:17:25;34.00;;;14.87;;
44456;SDS011;30159;49.316;8.558;2023-02-15T02:20:06;39.57;;;15.40;;
44456;SDS011;30159;49.316;8.558;2023-02-15T02:23:08;37.80;;;16.43;;
44456;SDS011;30159;49.316;8.558;2023-02-15T02:28:56;38.83;;;14.80;;
44456;SDS011;30159;49.316;8.558;2023-02-15T02:32:00;34.73;;;14.53;;
44456;SDS011;30159;49.316;8.558;2023-02-15T02:34:53;33.30;;;12.53;;
44456;SDS011;30159;49.316;8.558;2023-02-15T02:37:28;32.37;;;14.93;;
44456;SDS011;30159;49.316;8.558;2023-02-15T02:40:03;39.03;;;13.90;;
44456;SDS011;30159;49.316;8.558;2023-02-15T02:42:34;39.10;;;14.53;;
44456;SDS011;30159;49.316;8.558;2023-02-15T02:45:05;40.43;;;15.73;;
44456;SDS011;30159;49.316;8.558;2023-02-15T02:47:35;38.70;;;16.03;;
44456;SDS011;30159;49.316;8.558;2023-02-15T02:50:12;35.50;;;15.10;;
44456;SDS011;30159;49.316;8.558;2023-02-15T02:52:41;35.87;;;16.23;;
44456;SDS011;30159;49.316;8.558;2023-02-15T02:55:10;38.17;;;13.77;;
44456;SDS011;30159;49.316;8.558;2023-02-15T02:57:43;37.47;;;15.37;;
44456;SDS011;30159;49.316;8.558;2023-02-15T03:00:18;46.73;;;15.50;;
44456;SDS011;30159;49.316;8.558;2023-02-15T03:02:47;42.67;;;15.40;;
44456;SDS011;30159;49.316;8.558;2023-02-15T03:05:19;41.90;;;15.03;;
44456;SDS011;30159;49.316;8.558;2023-02-15T03:07:50;35.43;;;14.97;;
44456;SDS011;30159;49.316;8.558;2023-02-15T03:10:20;39.07;;;14.60;;
44456;SDS011;30159;49.316;8.558;2023-02-15T03:12:49;36.27;;;15.03;;
44456;SDS011;30159;49.316;8.558;2023-02-15T03:15:18;48.47;;;16.10;;
44456;SDS011;30159;49.316;8.558;2023-02-15T03:17:48;35.33;;;16.87;;
44456;SDS011;30159;49.316;8.558;2023-02-15T03:20:21;38.20;;;13.70;;
44456;SDS011;30159;49.316;8.558;2023-02-15T03:22:56;37.93;;;15.80;;
44456;SDS011;30159;49.316;8.558;2023-02-15T03:29:05;36.57;;;14.60;;
44456;SDS011;30159;49.316;8.558;2023-02-15T03:32:02;43.53;;;14.90;;
44456;SDS011;30159;49.316;8.558;2023-02-15T03:35:18;45.90;;;15.17;;
44456;SDS011;30159;49.316;8.558;2023-02-15T05:19:09;25.50;;;12.80;;
44456;SDS011;30159;49.316;8.558;2023-02-15T05:21:36;30.80;;;14.87;;
44456;SDS011;30159;49.316;8.558;2023-02-15T05:24:03;32.83;;;14.73;;
44456;SDS011;30159;49.316;8.558;2023-02-15T05:26:49;28.23;;;15.20;;
44456;SDS011;30159;49.316;8.558;2023-02-15T05:29:33;29.73;;;13.93;;
44456;SDS011;30159;49.316;8.558;2023-02-15T05:32:00;27.43;;;13.23;;
44456;SDS011;30159;49.316;8.558;2023-02-15T05:34:28;26.23;;;14.07;;
44456;SDS011;30159;49.316;8.558;2023-02-15T05:36:55;32.63;;;13.80;;
44456;SDS011;30159;49.316;8.558;2023-02-15T05:39:21;30.03;;;13.13;;
44456;SDS011;30159;49.316;8.558;2023-02-15T05:41:48;29.50;;;12.90;;
44456;SDS011;30159;49.316;8.558;2023-02-15T05:44:14;29.20;;;12.63;;
44456;SDS011;30159;49.316;8.558;2023-02-15T05:46:41;25.83;;;13.50;;
44456;SDS011;30159;49.316;8.558;2023-02-15T05:49:07;27.07;;;12.73;;
44456;SDS011;30159;49.316;8.558;2023-02-15T05:51:35;25.63;;;12.70;;
44456;SDS011;30159;49.316;8.558;2023-02-15T05:54:02;27.33;;;13.50;;
44456;SDS011;30159;49.316;8.558;2023-02-15T05:56:28;27.43;;;12.97;;
44456;SDS011;30159;49.316;8.558;2023-02-15T05:58:55;24.30;;;12.70;;
44456;SDS011;30159;49.316;8.558;2023-02-15T06:01:21;28.77;;;13.20;;
44456;SDS011;30159;49.316;8.558;2023-02-15T06:03:48;30.53;;;12.40;;
44456;SDS011;30159;49.316;8.558;2023-02-15T06:06:15;23.87;;;11.97;;
44456;SDS011;30159;49.316;8.558;2023-02-15T06:08:43;31.00;;;14.33;;
44456;SDS011;30159;49.316;8.558;2023-02-15T06:11:10;30.10;;;12.33;;
44456;SDS011;30159;49.316;8.558;2023-02-15T06:13:36;28.23;;;12.23;;
44456;SDS011;30159;49.316;8.558;2023-02-15T06:16:03;28.93;;;13.00;;
44456;SDS011;30159;49.316;8.558;2023-02-15T06:18:30;27.00;;;12.30;;
44456;SDS011;30159;49.316;8.558;2023-02-15T06:20:56;27.70;;;12.50;;
44456;SDS011;30159;49.316;8.558;2023-02-15T06:23:23;30.30;;;13.50;;
44456;SDS011;30159;49.316;8.558;2023-02-15T06:25:51;26.97;;;13.17;;
44456;SDS011;30159;49.316;8.558;2023-02-15T06:28:17;25.87;;;13.73;;
44456;SDS011;30159;49.316;8.558;2023-02-15T06:30:44;23.30;;;10.83;;
44456;SDS011;30159;49.316;8.558;2023-02-15T06:33:10;24.30;;;10.93;;
44456;SDS011;30159;49.316;8.558;2023-02-15T06:35:37;29.87;;;12.90;;
44456;SDS011;30159;49.316;8.558;2023-02-15T06:38:03;24.20;;;11.83;;
44456;SDS011;30159;49.316;8.558;2023-02-15T06:40:30;22.27;;;12.97;;
44456;SDS011;30159;49.316;8.558;2023-02-15T06:42:58;26.50;;;12.80;;
44456;SDS011;30159;49.316;8.558;2023-02-15T06:45:24;29.70;;;13.23;;
44456;SDS011;30159;49.316;8.558;2023-02-15T06:47:51;25.97;;;13.47;;
44456;SDS011;30159;49.316;8.558;2023-02-15T06:50:17;23.47;;;12.03;;
44456;SDS011;30159;49.316;8.558;2023-02-15T06:52:44;24.10;;;11.63;;
44456;SDS011;30159;49.316;8.558;2023-02-15T06:55:11;24.00;;;11.80;;
44456;SDS011;30159;49.316;8.558;2023-02-15T06:57:37;24.93;;;14.00;;
44456;SDS011;30159;49.316;8.558;2023-02-15T07:00:07;24.87;;;11.17;;
44456;SDS011;30159;49.316;8.558;2023-02-15T07:02:34;21.57;;;10.93;;
44456;SDS011;30159;49.316;8.558;2023-02-15T07:05:00;29.57;;;11.77;;
44456;SDS011;30159;49.316;8.558;2023-02-15T07:07:27;26.03;;;13.77;;
44456;SDS011;30159;49.316;8.558;2023-02-15T07:09:54;24.63;;;12.60;;
44456;SDS011;30159;49.316;8.558;2023-02-15T07:12:20;25.10;;;11.00;;
44456;SDS011;30159;49.316;8.558;2023-02-15T07:15:04;22.67;;;11.17;;
44456;SDS011;30159;49.316;8.558;2023-02-15T07:17:34;23.67;;;10.90;;
44456;SDS011;30159;49.316;8.558;2023-02-15T07:20:00;20.27;;;10.73;;
44456;SDS011;30159;49.316;8.558;2023-02-15T07:22:27;22.43;;;11.30;;
44456;SDS011;30159;49.316;8.558;2023-02-15T07:24:53;17.97;;;9.77;;
44456;SDS011;30159;49.316;8.558;2023-02-15T07:27:20;18.87;;;10.40;;
44456;SDS011;30159;49.316;8.558;2023-02-15T07:29:46;23.27;;;11.30;;
44456;SDS011;30159;49.316;8.558;2023-02-15T07:32:13;29.23;;;12.67;;
44456;SDS011;30159;49.316;8.558;2023-02-15T07:34:41;20.63;;;11.00;;
44456;SDS011;30159;49.316;8.558;2023-02-15T07:37:07;18.53;;;10.30;;
44456;SDS011;30159;49.316;8.558;2023-02-15T07:39:34;26.53;;;11.90;;
44456;SDS011;30159;49.316;8.558;2023-02-15T07:42:00;20.23;;;11.00;;
44456;SDS011;30159;49.316;8.558;2023-02-15T07:44:27;19.90;;;10.50;;
44456;SDS011;30159;49.316;8.558;2023-02-15T07:46:53;45.97;;;27.13;;
44456;SDS011;30159;49.316;8.558;2023-02-15T07:49:20;24.73;;;13.13;;
44456;SDS011;30159;49.316;8.558;2023-02-15T07:51:48;41.53;;;18.70;;
44456;SDS011;30159;49.316;8.558;2023-02-15T07:54:14;28.27;;;15.37;;
44456;SDS011;30159;49.316;8.558;2023-02-15T07:56:41;20.37;;;11.27;;
44456;SDS011;30159;49.316;8.558;2023-02-15T07:59:08;24.47;;;11.93;;
44456;SDS011;30159;49.316;8.558;2023-02-15T08:01:35;18.37;;;10.97;;
44456;SDS011;30159;49.316;8.558;2023-02-15T08:04:04;18.30;;;10.93;;
44456;SDS011;30159;49.316;8.558;2023-02-15T08:06:33;20.30;;;10.63;;
44456;SDS011;30159;49.316;8.558;2023-02-15T08:09:04;22.30;;;11.47;;
44456;SDS011;30159;49.316;8.558;2023-02-15T08:11:31;27.57;;;11.10;;
44456;SDS011;30159;49.316;8.558;2023-02-15T08:14:02;21.77;;;11.13;;
44456;SDS011;30159;49.316;8.558;2023-02-15T08:16:31;22.07;;;11.40;;
44456;SDS011;30159;49.316;8.558;2023-02-15T08:19:00;25.53;;;11.87;;
44456;SDS011;30159;49.316;8.558;2023-02-15T08:21:29;19.90;;;10.77;;
44456;SDS011;30159;49.316;8.558;2023-02-15T08:23:56;20.20;;;10.33;;
44456;SDS011;30159;49.316;8.558;2023-02-15T08:26:25;19.53;;;10.50;;
44456;SDS011;30159;49.316;8.558;2023-02-15T08:28:53;22.20;;;11.10;;
44456;SDS011;30159;49.316;8.558;2023-02-15T08:31:20;22.53;;;11.90;;
44456;SDS011;30159;49.316;8.558;2023-02-15T08:33:48;21.73;;;11.13;;
44456;SDS011;30159;49.316;8.558;2023-02-15T08:36:16;24.70;;;11.57;;
44456;SDS011;30159;49.316;8.558;2023-02-15T08:38:44;22.40;;;11.83;;
44456;SDS011;30159;49.316;8.558;2023-02-15T08:41:12;19.10;;;10.30;;
44456;SDS011;30159;49.316;8.558;2023-02-15T08:43:42;28.40;;;11.33;;
44456;SDS011;30159;49.316;8.558;2023-02-15T08:46:09;24.13;;;11.07;;
44456;SDS011;30159;49.316;8.558;2023-02-15T08:48:37;23.30;;;11.83;;
44456;SDS011;30159;49.316;8.558;2023-02-15T08:51:05;25.80;;;11.77;;
44456;SDS011;30159;49.316;8.558;2023-02-15T08:53:32;18.07;;;9.80;;
44456;SDS011;30159;49.316;8.558;2023-02-15T08:55:59;29.77;;;13.73;;
44456;SDS011;30159;49.316;8.558;2023-02-15T08:58:26;23.00;;;12.03;;
44456;SDS011;30159;49.316;8.558;2023-02-15T09:00:55;25.67;;;13.83;;
44456;SDS011;30159;49.316;8.558;2023-02-15T09:03:21;26.00;;;12.07;;
44456;SDS011;30159;49.316;8.558;2023-02-15T09:05:48;23.27;;;11.40;;
44456;SDS011;30159;49.316;8.558;2023-02-15T09:08:15;18.43;;;11.53;;
44456;SDS011;30159;49.316;8.558;2023-02-15T09:10:41;26.10;;;14.20;;
44456;SDS011;30159;49.316;8.558;2023-02-15T09:13:08;27.90;;;13.33;;
44456;SDS011;30159;49.316;8.558;2023-02-15T09:15:34;33.43;;;16.63;;
44456;SDS011;30159;49.316;8.558;2023-02-15T09:18:03;27.77;;;13.13;;
44456;SDS011;30159;49.316;8.558;2023-02-15T09:20:31;31.97;;;13.87;;
44456;SDS011;30159;49.316;8.558;2023-02-15T09:22:58;29.93;;;13.83;;
44456;SDS011;30159;49.316;8.558;2023-02-15T09:25:25;26.63;;;14.50;;
44456;SDS011;30159;49.316;8.558;2023-02-15T09:27:52;29.33;;;12.93;;
44456;SDS011;30159;49.316;8.558;2023-02-15T09:30:18;35.73;;;15.80;;
44456;SDS011;30159;49.316;8.558;2023-02-15T09:32:45;26.43;;;13.63;;
44456;SDS011;30159;49.316;8.558;2023-02-15T09:35:14;30.87;;;14.57;;
44456;SDS011;30159;49.316;8.558;2023-02-15T09:37:40;34.77;;;15.30;;
44456;SDS011;30159;49.316;8.558;2023-02-15T09:40:07;34.27;;;15.73;;
44456;SDS011;30159;49.316;8.558;2023-02-15T09:42:39;31.97;;;14.10;;
44456;SDS011;30159;49.316;8.558;2023-02-15T09:45:24;34.53;;;15.43;;
44456;SDS011;30159;49.316;8.558;2023-02-15T09:48:02;29.83;;;12.70;;
44456;SDS011;30159;49.316;8.558;2023-02-15T09:50:40;30.00;;;14.30;;
44456;SDS011;30159;49.316;8.558;2023-02-15T09:53:29;29.27;;;14.57;;
44456;SDS011;30159;49.316;8.558;2023-02-15T09:56:05;29.37;;;14.20;;
44456;SDS011;30159;49.316;8.558;2023-02-15T09:58:38;32.77;;;14.47;;
44456;SDS011;30159;49.316;8.558;2023-02-15T10:01:13;30.70;;;15.17;;
44456;SDS011;30159;49.316;8.558;2023-02-15T10:03:53;33.13;;;15.67;;
44456;SDS011;30159;49.316;8.558;2023-02-15T10:06:36;30.07;;;13.93;;
44456;SDS011;30159;49.316;8.558;2023-02-15T10:09:27;28.40;;;13.30;;
44456;SDS011;30159;49.316;8.558;2023-02-15T10:15:12;27.43;;;14.50;;
44456;SDS011;30159;49.316;8.558;2023-02-15T10:17:52;28.67;;;14.70;;
44456;SDS011;30159;49.316;8.558;2023-02-15T10:20:33;27.07;;;15.60;;
44456;SDS011;30159;49.316;8.558;2023-02-15T10:23:16;33.77;;;16.50;;
44456;SDS011;30159;49.316;8.558;2023-02-15T10:26:01;36.80;;;17.30;;
44456;SDS011;30159;49.316;8.558;2023-02-15T10:28:38;27.77;;;13.80;;
44456;SDS011;30159;49.316;8.558;2023-02-15T10:31:12;25.73;;;12.73;;
44456;SDS011;30159;49.316;8.558;2023-02-15T10:33:51;30.97;;;14.97;;
44456;SDS011;30159;49.316;8.558;2023-02-15T10:36:39;27.17;;;13.97;;
44456;SDS011;30159;49.316;8.558;2023-02-15T10:39:18;30.83;;;15.13;;
44456;SDS011;30159;49.316;8.558;2023-02-15T10:41:52;25.63;;;13.20;;
44456;SDS011;30159;49.316;8.558;2023-02-15T10:44:40;25.40;;;14.33;;
44456;SDS011;30159;49.316;8.558;2023-02-15T10:47:28;30.87;;;15.70;;
44456;SDS011;30159;49.316;8.558;2023-02-15T10:50:06;31.13;;;16.13;;
44456;SDS011;30159;49.316;8.558;2023-02-15T10:52:46;25.03;;;14.30;;
44456;SDS011;30159;49.316;8.558;2023-02-15T10:55:30;27.83;;;14.70;;
44456;SDS011;30159;49.316;8.558;2023-02-15T10:58:07;28.07;;;14.83;;
44456;SDS011;30159;49.316;8.558;2023-02-15T11:00:43;32.53;;;15.30;;
44456;SDS011;30159;49.316;8.558;2023-02-15T11:03:18;32.40;;;16.10;;
44456;SDS011;30159;49.316;8.558;2023-02-15T11:05:58;26.93;;;14.10;;
44456;SDS011;30159;49.316;8.558;2023-02-15T11:08:31;30.83;;;15.00;;
44456;SDS011;30159;49.316;8.558;2023-02-15T11:11:03;30.50;;;15.40;;
44456;SDS011;30159;49.316;8.558;2023-02-15T11:13:34;30.30;;;16.60;;
44456;SDS011;30159;49.316;8.558;2023-02-15T11:16:05;28.37;;;15.63;;
44456;SDS011;30159;49.316;8.558;2023-02-15T11:18:37;30.20;;;15.37;;
44456;SDS011;30159;49.316;8.558;2023-02-15T11:21:09;25.10;;;15.07;;
44456;SDS011;30159;49.316;8.558;2023-02-15T11:23:42;30.70;;;16.37;;
44456;SDS011;30159;49.316;8.558;2023-02-15T11:26:13;30.10;;;15.63;;
44456;SDS011;30159;49.316;8.558;2023-02-15T11:28:43;34.50;;;17.10;;
44456;SDS011;30159;49.316;8.558;2023-02-15T11:31:15;31.67;;;16.40;;
44456;SDS011;30159;49.316;8.558;2023-02-15T11:33:45;34.33;;;17.60;;
44456;SDS011;30159;49.316;8.558;2023-02-15T11:36:15;28.10;;;14.03;;
44456;SDS011;30159;49.316;8.558;2023-02-15T11:38:46;29.50;;;16.37;;
44456;SDS011;30159;49.316;8.558;2023-02-15T11:41:18;31.33;;;14.90;;
44456;SDS011;30159;49.316;8.558;2023-02-15T11:43:49;26.60;;;14.73;;
44456;SDS011;30159;49.316;8.558;2023-02-15T11:46:22;28.47;;;14.73;;
44456;SDS011;30159;49.316;8.558;2023-02-15T11:48:49;26.93;;;14.67;;
44456;SDS011;30159;49.316;8.558;2023-02-15T11:51:16;29.30;;;16.37;;
44456;SDS011;30159;49.316;8.558;2023-02-15T11:53:45;28.40;;;14.00;;
44456;SDS011;30159;49.316;8.558;2023-02-15T11:56:13;28.37;;;14.80;;
44456;SDS011;30159;49.316;8.558;2023-02-15T11:58:43;26.43;;;15.97;;
44456;SDS011;30159;49.316;8.558;2023-02-15T12:01:14;25.93;;;15.73;;
44456;SDS011;30159;49.316;8.558;2023-02-15T12:03:46;32.00;;;16.43;;
44456;SDS011;30159;49.316;8.558;2023-02-15T12:06:20;25.97;;;15.27;;
44456;SDS011;30159;49.316;8.558;2023-02-15T12:08:52;29.80;;;16.27;;
44456;SDS011;30159;49.316;8.558;2023-02-15T12:11:26;30.07;;;16.10;;
44456;SDS011;30159;49.316;8.558;2023-02-15T12:14:01;26.93;;;16.03;;
44456;SDS011;30159;49.316;8.558;2023-02-15T12:16:31;29.20;;;16.50;;
44456;SDS011;30159;49.316;8.558;2023-02-15T12:19:10;38.23;;;16.00;;
44456;SDS011;30159;49.316;8.558;2023-02-15T12:21:48;27.47;;;14.73;;
44456;SDS011;30159;49.316;8.558;2023-02-15T12:24:17;26.43;;;15.60;;
44456;SDS011;30159;49.316;8.558;2023-02-15T12:26:55;27.43;;;14.93;;
44456;SDS011;30159;49.316;8.558;2023-02-15T12:29:26;29.97;;;16.10;;
44456;SDS011;30159;49.316;8.558;2023-02-15T12:31:55;29.90;;;15.80;;
44456;SDS011;30159;49.316;8.558;2023-02-15T12:34:24;30.40;;;16.23;;
44456;SDS011;30159;49.316;8.558;2023-02-15T12:36:55;28.10;;;16.50;;
44456;SDS011;30159;49.316;8.558;2023-02-15T12:39:25;25.90;;;15.67;;
44456;SDS011;30159;49.316;8.558;2023-02-15T12:42:01;28.60;;;15.70;;
44456;SDS011;30159;49.316;8.558;2023-02-15T12:44:31;29.43;;;15.43;;
44456;SDS011;30159;49.316;8.558;2023-02-15T12:47:00;28.80;;;16.20;;
44456;SDS011;30159;49.316;8.558;2023-02-15T12:49:29;31.80;;;17.40;;
44456;SDS011;30159;49.316;8.558;2023-02-15T12:51:57;34.40;;;18.10;;
44456;SDS011;30159;49.316;8.558;2023-02-15T12:54:29;32.80;;;17.80;;
44456;SDS011;30159;49.316;8.558;2023-02-15T12:57:01;29.30;;;16.40;;
44456;SDS011;30159;49.316;8.558;2023-02-15T12:59:44;35.83;;;18.70;;
44456;SDS011;30159;49.316;8.558;2023-02-15T13:02:16;30.67;;;18.17;;
44456;SDS011;30159;49.316;8.558;2023-02-15T13:04:50;31.80;;;16.80;;
44456;SDS011;30159;49.316;8.558;2023-02-15T13:07:17;31.90;;;19.17;;
44456;SDS011;30159;49.316;8.558;2023-02-15T13:09:44;28.43;;;16.63;;
44456;SDS011;30159;49.316;8.558;2023-02-15T13:12:14;28.80;;;17.40;;
44456;SDS011;30159;49.316;8.558;2023-02-15T13:14:46;38.40;;;19.60;;
44456;SDS011;30159;49.316;8.558;2023-02-15T13:17:16;36.00;;;20.20;;
44456;SDS011;30159;49.316;8.558;2023-02-15T13:19:46;31.50;;;17.97;;
44456;SDS011;30159;49.316;8.558;2023-02-15T13:22:16;35.60;;;19.07;;
44456;SDS011;30159;49.316;8.558;2023-02-15T13:24:47;32.17;;;19.10;;
44456;SDS011;30159;49.316;8.558;2023-02-15T13:27:16;30.87;;;17.60;;
44456;SDS011;30159;49.316;8.558;2023-02-15T13:29:48;33.93;;;18.70;;
44456;SDS011;30159;49.316;8.558;2023-02-15T13:32:22;32.73;;;18.20;;
44456;SDS011;30159;49.316;8.558;2023-02-15T13:34:52;27.57;;;17.27;;
44456;SDS011;30159;49.316;8.558;2023-02-15T13:37:26;35.03;;;18.73;;
44456;SDS011;30159;49.316;8.558;2023-02-15T13:40:08;38.50;;;21.17;;
44456;SDS011;30159;49.316;8.558;2023-02-15T13:42:40;41.87;;;18.00;;
44456;SDS011;30159;49.316;8.558;2023-02-15T13:45:16;31.03;;;16.70;;
44456;SDS011;30159;49.316;8.558;2023-02-15T13:47:56;28.47;;;16.13;;
44456;SDS011;30159;49.316;8.558;2023-02-15T13:50:33;29.93;;;18.17;;
44456;SDS011;30159;49.316;8.558;2023-02-15T13:53:27;32.43;;;17.50;;
44456;SDS011;30159;49.316;8.558;2023-02-15T13:56:25;29.77;;;15.53;;
44456;SDS011;30159;49.316;8.558;2023-02-15T13:59:02;28.37;;;17.17;;
44456;SDS011;30159;49.316;8.558;2023-02-15T14:01:45;34.27;;;18.27;;
44456;SDS011;30159;49.316;8.558;2023-02-15T14:04:37;28.33;;;16.37;;
44456;SDS011;30159;49.316;8.558;2023-02-15T14:07:17;35.90;;;17.67;;
44456;SDS011;30159;49.316;8.558;2023-02-15T14:10:11;27.27;;;16.30;;
44456;SDS011;30159;49.316;8.558;2023-02-15T14:12:55;37.97;;;19.47;;
44456;SDS011;30159;49.316;8.558;2023-02-15T14:15:35;28.73;;;17.63;;
44456;SDS011;30159;49.316;8.558;2023-02-15T14:18:15;34.10;;;17.63;;
44456;SDS011;30159;49.316;8.558;2023-02-15T14:20:56;47.37;;;19.77;;
44456;SDS011;30159;49.316;8.558;2023-02-15T14:23:36;29.57;;;17.23;;
44456;SDS011;30159;49.316;8.558;2023-02-15T14:26:11;33.07;;;19.27;;
44456;SDS011;30159;49.316;8.558;2023-02-15T14:28:45;37.60;;;19.20;;
44456;SDS011;30159;49.316;8.558;2023-02-15T14:31:34;30.77;;;18.00;;
44456;SDS011;30159;49.316;8.558;2023-02-15T14:34:08;28.40;;;15.57;;
44456;SDS011;30159;49.316;8.558;2023-02-15T14:36:44;31.33;;;17.20;;
44456;SDS011;30159;49.316;8.558;2023-02-15T14:39:12;30.87;;;16.30;;
44456;SDS011;30159;49.316;8.558;2023-02-15T14:42:07;32.60;;;17.60;;
44456;SDS011;30159;49.316;8.558;2023-02-15T14:44:42;36.50;;;18.10;;
44456;SDS011;30159;49.316;8.558;2023-02-15T14:47:15;31.60;;;17.07;;
44456;SDS011;30159;49.316;8.558;2023-02-15T14:49:50;32.60;;;18.03;;
44456;SDS011;30159;49.316;8.558;2023-02-15T14:52:16;35.97;;;17.43;;
44456;SDS011;30159;49.316;8.558;2023-02-15T14:54:53;33.10;;;18.10;;
44456;SDS011;30159;49.316;8.558;2023-02-15T14:57:25;30.40;;;17.43;;
44456;SDS011;30159;49.316;8.558;2023-02-15T14:59:53;31.03;;;17.20;;
44456;SDS011;30159;49.316;8.558;2023-02-15T15:02:23;32.27;;;16.53;;
44456;SDS011;30159;49.316;8.558;2023-02-15T15:04:58;35.73;;;19.70;;
44456;SDS011;30159;49.316;8.558;2023-02-15T15:07:28;37.97;;;18.30;;
44456;SDS011;30159;49.316;8.558;2023-02-15T15:18:53;30.20;;;17.70;;
44456;SDS011;30159;49.316;8.558;2023-02-15T15:33:45;36.60;;;18.93;;
44456;SDS011;30159;49.316;8.558;2023-02-15T15:36:49;29.20;;;16.20;;
44456;SDS011;30159;49.316;8.558;2023-02-15T15:39:47;27.00;;;16.43;;
44456;SDS011;30159;49.316;8.558;2023-02-15T15:42:50;31.30;;;17.30;;
44456;SDS011;30159;49.316;8.558;2023-02-15T15:45:34;36.37;;;18.00;;
44456;SDS011;30159;49.316;8.558;2023-02-15T15:48:25;32.33;;;18.17;;
44456;SDS011;30159;49.316;8.558;2023-02-15T15:50:56;33.97;;;18.23;;
44456;SDS011;30159;49.316;8.558;2023-02-15T15:53:25;31.60;;;17.50;;
44456;SDS011;30159;49.316;8.558;2023-02-15T15:55:55;35.13;;;18.83;;
44456;SDS011;30159;49.316;8.558;2023-02-15T15:58:28;31.10;;;17.27;;
44456;SDS011;30159;49.316;8.558;2023-02-15T16:00:58;30.50;;;15.77;;
44456;SDS011;30159;49.316;8.558;2023-02-15T16:03:27;30.80;;;16.20;;
44456;SDS011;30159;49.316;8.558;2023-02-15T16:05:55;32.10;;;17.07;;
44456;SDS011;30159;49.316;8.558;2023-02-15T16:08:25;32.37;;;17.40;;
44456;SDS011;30159;49.316;8.558;2023-02-15T16:10:54;28.13;;;16.47;;
44456;SDS011;30159;49.316;8.558;2023-02-15T16:13:21;33.07;;;16.40;;
44456;SDS011;30159;49.316;8.558;2023-02-15T16:15:49;31.80;;;16.37;;
44456;SDS011;30159;49.316;8.558;2023-02-15T16:18:18;27.07;;;16.87;;
44456;SDS011;30159;49.316;8.558;2023-02-15T16:20:51;26.20;;;15.60;;
44456;SDS011;30159;49.316;8.558;2023-02-15T16:23:31;28.17;;;15.00;;
44456;SDS011;30159;49.316;8.558;2023-02-15T16:26:18;27.53;;;14.40;;
44456;SDS011;30159;49.316;8.558;2023-02-15T16:28:58;28.90;;;16.10;;
44456;SDS011;30159;49.316;8.558;2023-02-15T16:31:27;27.00;;;14.30;;
44456;SDS011;30159;49.316;8.558;2023-02-15T16:33:54;32.93;;;17.13;;
44456;SDS011;30159;49.316;8.558;2023-02-15T16:36:21;41.20;;;18.90;;
44456;SDS011;30159;49.316;8.558;2023-02-15T16:39:05;31.33;;;17.50;;
44456;SDS011;30159;49.316;8.558;2023-02-15T16:41:34;35.00;;;17.47;;
44456;SDS011;30159;49.316;8.558;2023-02-15T16:44:03;33.20;;;17.73;;
44456;SDS011;30159;49.316;8.558;2023-02-15T16:46:35;37.30;;;20.80;;
44456;SDS011;30159;49.316;8.558;2023-02-15T16:49:04;32.60;;;18.37;;
44456;SDS011;30159;49.316;8.558;2023-02-15T16:51:40;39.50;;;17.53;;
44456;SDS011;30159;49.316;8.558;2023-02-15T16:54:13;38.80;;;19.77;;
44456;SDS011;30159;49.316;8.558;2023-02-15T16:56:43;36.70;;;18.50;;
44456;SDS011;30159;49.316;8.558;2023-02-15T16:59:14;41.47;;;18.77;;
44456;SDS011;30159;49.316;8.558;2023-02-15T17:01:50;45.67;;;22.67;;